Time;durP1;ratioP1;P1;durP2;ratioP2;P2;SDS_P1;SDS_P2;PMS_P1;PMS_P2;Temp;Humidity;BMP_temperature;BMP_pressure;BME280_temperature;BME280_humidity;BME280_pressure;Samples;Min_cycle;Max_cycle;Signal;HPM_P1;HPM_P2
2023/10/30 00:02:20;;;;;;;11.77;2.27;;;11.40;99.90;;;;;;5057997;28;38442;-76
2023/10/30 00:04:46;;;;;;;8.18;2.22;;;11.30;99.90;;;;;;5055821;28;39001;-76
2023/10/30 00:07:13;;;;;;;9.73;2.28;;;11.20;99.90;;;;;;5056329;28;40488;-76
2023/10/30 00:09:39;;;;;;;7.93;2.47;;;11.20;99.90;;;;;;5057099;28;35955;-76
2023/10/30 00:12:05;;;;;;;13.73;2.60;;;11.10;99.90;;;;;;5053758;28;39536;-76
2023/10/30 00:14:31;;;;;;;9.55;3.05;;;11.10;99.90;;;;;;5056607;28;38098;-75
2023/10/30 00:16:57;;;;;;;12.73;2.73;;;11.00;99.90;;;;;;5062760;28;38721;-77
2023/10/30 00:19:23;;;;;;;10.00;2.70;;;11.00;99.90;;;;;;5070651;28;37598;-76
2023/10/30 00:21:49;;;;;;;11.87;2.80;;;10.90;99.90;;;;;;5071237;28;38875;-76
2023/10/30 00:24:16;;;;;;;17.03;2.73;;;10.90;99.90;;;;;;5067471;28;38511;-75
2023/10/30 00:26:42;;;;;;;14.07;2.73;;;10.90;99.90;;;;;;5068139;28;37884;-75
2023/10/30 00:29:08;;;;;;;9.10;2.30;;;10.90;99.90;;;;;;5068586;28;36145;-76
2023/10/30 00:31:36;;;;;;;10.63;2.37;;;10.90;99.90;;;;;;5072729;28;38970;-75
2023/10/30 00:34:04;;;;;;;14.82;3.30;;;10.90;99.90;;;;;;5077123;28;38556;-76
2023/10/30 00:36:30;;;;;;;13.57;2.70;;;10.90;99.90;;;;;;5073210;28;39784;-76
2023/10/30 00:38:56;;;;;;;8.63;2.40;;;10.90;99.90;;;;;;5070814;28;36118;-76
2023/10/30 00:41:23;;;;;;;10.33;2.50;;;10.90;99.90;;;;;;5062207;28;39349;-76
2023/10/30 00:43:49;;;;;;;7.23;2.23;;;10.90;99.90;;;;;;5063946;28;38678;-76
2023/10/30 00:46:15;;;;;;;14.13;2.60;;;10.90;99.90;;;;;;5058067;28;37308;-77
2023/10/30 00:48:41;;;;;;;14.07;3.10;;;10.90;99.90;;;;;;5061737;28;36490;-75
2023/10/30 00:51:07;;;;;;;12.40;2.17;;;10.90;99.90;;;;;;5061190;28;37903;-76
2023/10/30 00:53:33;;;;;;;14.60;2.40;;;10.90;99.90;;;;;;5065135;28;38395;-76
2023/10/30 00:55:59;;;;;;;11.57;1.97;;;10.90;99.90;;;;;;5063599;28;36865;-77
2023/10/30 00:58:25;;;;;;;9.57;2.22;;;10.90;99.90;;;;;;5059955;28;36054;-78
2023/10/30 01:00:51;;;;;;;17.93;2.70;;;10.90;99.90;;;;;;5061413;28;38548;-76
2023/10/30 01:03:23;;;;;;;11.63;3.13;;;10.90;99.90;;;;;;5063145;28;37455;-77
2023/10/30 01:05:59;;;;;;;6.33;2.30;;;10.90;99.90;;;;;;5059560;28;37084;-76
2023/10/30 01:08:26;;;;;;;14.03;2.87;;;10.90;99.90;;;;;;5056455;28;37003;-77
2023/10/30 01:10:57;;;;;;;17.00;1.80;;;11.00;99.90;;;;;;5058372;28;38679;-76
2023/10/30 01:13:23;;;;;;;11.43;1.93;;;11.00;99.90;;;;;;5060470;28;38256;-77
2023/10/30 01:15:56;;;;;;;14.27;2.70;;;10.90;99.90;;;;;;5058767;28;37080;-77
2023/10/30 01:18:22;;;;;;;;;;;10.90;99.90;;;;;;5061146;28;35431;-77
2023/10/30 01:20:48;;;;;;;11.53;2.53;;;10.90;99.90;;;;;;5059963;28;38840;-76
2023/10/30 01:23:15;;;;;;;11.25;2.60;;;10.90;99.90;;;;;;5056078;28;38856;-76
2023/10/30 01:25:41;;;;;;;15.77;2.70;;;10.90;99.90;;;;;;5055363;28;38358;-77
2023/10/30 01:28:07;;;;;;;16.08;2.83;;;10.90;99.90;;;;;;5054795;28;36944;-77
2023/10/30 01:30:34;;;;;;;14.13;3.43;;;11.00;99.90;;;;;;5056378;28;37707;-76
2023/10/30 01:33:00;;;;;;;12.50;2.60;;;11.00;99.90;;;;;;5056009;28;41173;-75
2023/10/30 01:35:26;;;;;;;16.90;3.22;;;11.00;99.90;;;;;;5053948;28;38683;-77
2023/10/30 01:37:52;;;;;;;12.20;2.50;;;11.00;99.90;;;;;;5059185;28;36937;-74
2023/10/30 01:40:18;;;;;;;14.73;2.28;;;10.90;99.90;;;;;;5052396;28;39460;-76
2023/10/30 01:42:44;;;;;;;13.05;2.45;;;10.90;99.90;;;;;;5058121;28;38463;-75
2023/10/30 01:45:11;;;;;;;13.00;2.60;;;10.90;99.90;;;;;;5056271;28;37434;-76
2023/10/30 01:47:37;;;;;;;12.93;2.30;;;10.90;99.90;;;;;;5055663;28;36095;-75
2023/10/30 01:50:06;;;;;;;14.07;2.63;;;10.80;99.90;;;;;;5053782;28;37716;-74
2023/10/30 01:52:33;;;;;;;11.10;2.33;;;10.90;99.90;;;;;;5058861;28;37206;-76
2023/10/30 01:55:00;;;;;;;15.93;3.22;;;10.80;99.90;;;;;;5056620;28;37404;-76
2023/10/30 01:57:28;;;;;;;13.63;2.37;;;10.80;99.90;;;;;;5057338;28;37939;-74
2023/10/30 01:59:56;;;;;;;12.50;2.33;;;10.80;99.90;;;;;;5056761;28;38618;-76
2023/10/30 02:02:23;;;;;;;13.00;2.27;;;10.80;99.90;;;;;;5444928;22;37712;-77
2023/10/30 02:04:49;;;;;;;13.53;2.53;;;10.80;99.90;;;;;;5032706;27;38445;-77
2023/10/30 02:07:16;;;;;;;13.10;2.40;;;10.80;99.90;;;;;;5045053;28;36280;-77
2023/10/30 02:09:42;;;;;;;11.77;2.07;;;10.80;99.90;;;;;;5049188;28;39051;-77
2023/10/30 02:12:09;;;;;;;10.53;2.60;;;10.70;99.90;;;;;;5052968;28;37856;-77
2023/10/30 02:14:35;;;;;;;12.67;2.67;;;10.70;99.90;;;;;;5049579;28;38584;-77
2023/10/30 02:17:01;;;;;;;13.73;1.90;;;10.80;99.90;;;;;;5054707;28;36330;-76
2023/10/30 02:19:28;;;;;;;13.97;2.23;;;10.80;99.90;;;;;;5048444;28;39756;-76
2023/10/30 02:21:56;;;;;;;9.23;1.70;;;10.80;99.90;;;;;;5052777;28;39190;-76
2023/10/30 02:24:23;;;;;;;14.13;2.23;;;10.80;99.90;;;;;;5051710;28;38998;-76
2023/10/30 02:26:49;;;;;;;13.63;2.10;;;10.90;99.90;;;;;;5052786;28;38108;-76
2023/10/30 02:29:16;;;;;;;11.70;1.80;;;10.90;99.90;;;;;;5049160;28;38463;-76
2023/10/30 02:31:43;;;;;;;14.85;3.00;;;10.90;99.90;;;;;;5048000;28;37597;-76
2023/10/30 02:34:10;;;;;;;12.20;2.73;;;11.00;99.90;;;;;;5050716;28;39130;-77
2023/10/30 02:36:36;;;;;;;15.25;2.58;;;10.90;99.90;;;;;;5051961;28;37038;-76
2023/10/30 02:39:03;;;;;;;10.80;2.03;;;11.00;99.90;;;;;;5051144;28;38564;-77
2023/10/30 02:41:31;;;;;;;14.97;2.50;;;11.00;99.90;;;;;;5050370;28;39237;-78
2023/10/30 02:43:58;;;;;;;12.83;2.70;;;11.00;99.90;;;;;;5069130;28;37187;-78
2023/10/30 02:46:25;;;;;;;18.08;3.00;;;11.00;99.90;;;;;;5050055;28;37129;-78
2023/10/30 02:48:51;;;;;;;13.13;2.60;;;11.00;99.90;;;;;;5047642;28;39505;-78
2023/10/30 02:51:17;;;;;;;15.57;3.10;;;11.00;99.90;;;;;;5056453;28;38186;-78
2023/10/30 02:53:43;;;;;;;13.37;2.53;;;11.10;99.90;;;;;;5052085;28;38436;-78
2023/10/30 02:56:10;;;;;;;14.25;2.85;;;11.10;99.90;;;;;;5052837;28;36986;-77
2023/10/30 02:58:36;;;;;;;9.43;2.50;;;11.10;99.90;;;;;;5054237;28;38847;-77
2023/10/30 03:01:03;;;;;;;15.18;2.70;;;11.10;99.90;;;;;;5055561;28;38537;-76
2023/10/30 03:03:29;;;;;;;11.37;2.23;;;11.10;99.90;;;;;;5052925;28;38186;-78
2023/10/30 03:05:55;;;;;;;20.40;2.53;;;11.10;99.90;;;;;;5052803;28;38911;-77
2023/10/30 03:08:22;;;;;;;13.43;2.57;;;11.10;99.90;;;;;;5052641;28;40099;-77
2023/10/30 03:10:48;;;;;;;12.47;2.80;;;11.10;99.90;;;;;;5051192;28;38646;-78
2023/10/30 03:13:14;;;;;;;14.60;2.30;;;11.10;99.90;;;;;;5054231;28;37768;-77
2023/10/30 03:15:45;;;;;;;14.80;2.60;;;11.10;99.90;;;;;;5052069;28;37217;-77
2023/10/30 03:18:12;;;;;;;13.57;2.23;;;11.10;99.90;;;;;;5053302;28;38881;-77
2023/10/30 03:20:38;;;;;;;17.10;2.60;;;11.10;99.90;;;;;;5047768;28;39421;-77
2023/10/30 03:23:04;;;;;;;17.07;2.80;;;11.10;99.90;;;;;;5045652;28;38756;-78
2023/10/30 03:25:30;;;;;;;12.37;2.23;;;11.10;99.90;;;;;;5050028;28;37179;-78
2023/10/30 03:27:56;;;;;;;13.03;2.57;;;11.10;99.90;;;;;;5046757;28;38596;-78
2023/10/30 03:30:22;;;;;;;14.67;2.67;;;11.10;99.90;;;;;;5051272;28;38637;-76
2023/10/30 03:32:49;;;;;;;13.32;2.00;;;11.10;99.90;;;;;;5050793;28;37407;-77
2023/10/30 03:35:15;;;;;;;12.70;2.53;;;11.10;99.90;;;;;;5050541;28;37951;-77
2023/10/30 03:37:41;;;;;;;10.83;2.13;;;11.20;99.90;;;;;;5051021;28;37944;-77
2023/10/30 03:40:08;;;;;;;20.70;2.80;;;11.10;99.90;;;;;;5050353;28;38546;-77
2023/10/30 03:42:34;;;;;;;14.87;2.13;;;11.10;99.90;;;;;;5062638;28;40382;-77
2023/10/30 03:45:00;;;;;;;10.90;1.80;;;11.10;99.90;;;;;;5053684;28;37302;-77
2023/10/30 03:47:26;;;;;;;19.00;3.07;;;11.10;99.90;;;;;;5049493;28;37636;-77
2023/10/30 03:49:52;;;;;;;14.27;2.53;;;11.10;99.90;;;;;;5052246;28;38397;-78
2023/10/30 03:52:19;;;;;;;13.27;3.03;;;11.10;99.90;;;;;;5047734;28;40309;-76
2023/10/30 03:54:45;;;;;;;14.77;2.17;;;11.10;99.90;;;;;;5051207;28;36319;-77
2023/10/30 03:57:11;;;;;;;16.20;2.40;;;11.10;99.90;;;;;;5055023;28;38526;-77
2023/10/30 03:59:38;;;;;;;19.77;2.63;;;11.10;99.90;;;;;;5050383;28;38477;-77
2023/10/30 04:02:04;;;;;;;15.30;2.23;;;11.10;99.90;;;;;;5051906;28;37053;-76
2023/10/30 04:04:30;;;;;;;15.90;2.70;;;11.10;99.90;;;;;;5053362;28;37240;-77
2023/10/30 04:06:56;;;;;;;17.17;2.73;;;11.00;99.90;;;;;;5048505;28;39210;-77
2023/10/30 04:09:22;;;;;;;12.47;2.53;;;11.00;99.90;;;;;;5053101;28;38488;-76
2023/10/30 04:11:49;;;;;;;12.67;2.60;;;11.00;99.90;;;;;;5053191;28;38442;-77
2023/10/30 04:14:15;;;;;;;14.63;2.93;;;11.00;99.90;;;;;;5045721;28;36253;-77
2023/10/30 04:16:41;;;;;;;15.20;2.40;;;11.00;99.90;;;;;;5050450;28;38673;-77
2023/10/30 04:19:08;;;;;;;14.13;2.17;;;11.00;99.90;;;;;;5046722;28;39295;-76
2023/10/30 04:21:34;;;;;;;17.67;2.50;;;11.00;99.90;;;;;;5052307;28;37231;-76
2023/10/30 04:24:00;;;;;;;17.43;2.47;;;11.00;99.90;;;;;;5054005;28;36548;-76
2023/10/30 04:26:26;;;;;;;16.13;2.77;;;11.00;99.90;;;;;;5049575;28;37708;-77
2023/10/30 04:28:53;;;;;;;10.87;2.20;;;11.00;99.90;;;;;;5051168;28;38680;-77
2023/10/30 04:31:19;;;;;;;15.93;2.73;;;11.00;99.90;;;;;;5052427;28;38222;-75
2023/10/30 04:33:45;;;;;;;14.53;2.80;;;11.10;99.90;;;;;;5050639;28;36989;-76
2023/10/30 04:36:12;;;;;;;13.40;2.57;;;11.00;99.90;;;;;;5051157;28;38451;-76
2023/10/30 04:38:39;;;;;;;9.07;2.40;;;11.10;99.90;;;;;;5048353;28;38592;-75
2023/10/30 04:41:05;;;;;;;13.40;2.90;;;11.10;99.90;;;;;;5051289;28;38356;-76
2023/10/30 04:43:43;;;;;;;12.53;2.70;;;11.10;99.90;;;;;;5052711;28;37131;-76
2023/10/30 04:46:09;;;;;;;17.50;3.03;;;11.10;99.90;;;;;;5049787;28;37742;-76
2023/10/30 04:48:35;;;;;;;13.03;2.37;;;11.20;99.90;;;;;;5051310;28;38970;-76
2023/10/30 04:51:02;;;;;;;18.63;2.57;;;11.20;99.90;;;;;;5055560;28;38235;-77
2023/10/30 04:53:29;;;;;;;17.15;3.08;;;11.20;99.90;;;;;;5054651;28;38800;-76
2023/10/30 04:56:00;;;;;;;15.88;2.80;;;11.20;99.90;;;;;;5053324;28;38497;-76
2023/10/30 04:58:26;;;;;;;16.37;3.07;;;11.30;99.90;;;;;;5054973;28;39233;-76
2023/10/30 05:00:52;;;;;;;14.87;2.80;;;11.30;99.90;;;;;;5053355;28;37737;-77
2023/10/30 05:03:18;;;;;;;17.43;2.83;;;11.20;99.90;;;;;;5050365;28;36532;-76
2023/10/30 05:05:44;;;;;;;17.17;3.27;;;11.20;99.90;;;;;;5050536;28;39545;-76
2023/10/30 05:08:10;;;;;;;20.97;2.87;;;11.20;99.90;;;;;;5050639;28;36643;-76
2023/10/30 05:10:36;;;;;;;13.60;2.40;;;11.20;99.90;;;;;;5069015;28;37875;-77
2023/10/30 05:13:03;;;;;;;16.57;2.40;;;11.20;99.90;;;;;;5054197;28;37118;-76
2023/10/30 05:15:29;;;;;;;8.70;2.60;;;11.10;99.90;;;;;;5056750;28;40480;-78
2023/10/30 05:17:55;;;;;;;9.63;2.20;;;11.10;99.90;;;;;;5056091;28;38378;-79
2023/10/30 05:20:21;;;;;;;11.63;2.27;;;11.20;99.90;;;;;;5052470;28;38145;-79
2023/10/30 05:22:47;;;;;;;13.00;2.23;;;11.20;99.90;;;;;;5055860;28;37633;-79
2023/10/30 05:25:13;;;;;;;10.23;2.43;;;11.10;99.90;;;;;;5052803;28;40179;-79
2023/10/30 05:27:39;;;;;;;13.53;2.67;;;11.10;99.90;;;;;;5051165;28;37481;-77
2023/10/30 05:30:06;;;;;;;15.50;2.77;;;11.10;99.90;;;;;;5055984;28;37725;-78
2023/10/30 05:32:32;;;;;;;14.63;2.77;;;11.10;99.90;;;;;;5051830;28;46793;-76
2023/10/30 05:34:58;;;;;;;18.50;2.90;;;11.10;99.90;;;;;;5053750;28;36545;-77
2023/10/30 05:37:25;;;;;;;18.67;3.10;;;11.10;99.90;;;;;;5054030;28;38155;-77
2023/10/30 05:39:51;;;;;;;15.17;2.83;;;11.10;99.90;;;;;;5054310;28;37961;-77
2023/10/30 05:42:17;;;;;;;14.63;2.93;;;11.10;99.90;;;;;;5053464;28;38037;-77
2023/10/30 05:44:44;;;;;;;14.07;2.97;;;11.10;99.90;;;;;;5052151;28;38844;-77
2023/10/30 05:47:10;;;;;;;16.93;2.73;;;11.00;99.90;;;;;;5053141;28;38392;-77
2023/10/30 05:49:36;;;;;;;17.70;3.10;;;11.00;99.90;;;;;;5054892;28;38371;-77
2023/10/30 05:52:02;;;;;;;14.53;2.40;;;11.00;99.90;;;;;;5052217;28;35653;-77
2023/10/30 05:54:28;;;;;;;17.00;2.63;;;10.90;99.90;;;;;;5057942;28;49012;-77
2023/10/30 05:56:54;;;;;;;15.50;2.43;;;10.90;99.90;;;;;;5054696;28;37546;-77
2023/10/30 05:59:21;;;;;;;16.23;2.97;;;10.90;99.90;;;;;;5048725;28;38783;-77
2023/10/30 06:01:48;;;;;;;19.47;3.00;;;10.90;99.90;;;;;;5053826;28;36472;-78
2023/10/30 06:04:14;;;;;;;21.00;3.50;;;10.80;99.90;;;;;;5048902;28;37876;-80
2023/10/30 06:06:40;;;;;;;17.93;3.13;;;10.80;99.90;;;;;;5053700;28;37519;-78
2023/10/30 06:09:07;;;;;;;16.73;2.80;;;10.80;99.90;;;;;;5055027;28;39633;-77
2023/10/30 06:11:34;;;;;;;12.10;2.37;;;10.80;99.90;;;;;;5053103;28;37529;-78
2023/10/30 06:14:00;;;;;;;21.53;3.53;;;10.80;99.90;;;;;;5052279;28;38671;-77
2023/10/30 06:16:26;;;;;;;18.00;3.30;;;10.70;99.90;;;;;;5049468;28;37655;-78
2023/10/30 06:18:53;;;;;;;22.93;3.40;;;10.80;99.90;;;;;;5043409;28;37486;-77
2023/10/30 06:21:20;;;;;;;19.93;3.20;;;10.80;99.90;;;;;;5044964;28;36059;-77
2023/10/30 06:23:46;;;;;;;17.40;3.03;;;10.90;99.90;;;;;;5052966;28;38528;-78
2023/10/30 06:26:13;;;;;;;18.03;2.90;;;10.90;99.90;;;;;;5052082;28;37841;-77
2023/10/30 06:28:40;;;;;;;16.17;3.07;;;10.80;99.90;;;;;;5052056;28;37898;-78
2023/10/30 06:31:14;;;;;;;14.90;3.17;;;10.80;99.90;;;;;;5052669;28;37908;-78
2023/10/30 06:33:40;;;;;;;17.20;3.90;;;10.90;99.90;;;;;;5052160;28;38179;-77
2023/10/30 06:36:06;;;;;;;18.27;2.77;;;10.80;99.90;;;;;;5068076;28;37580;-78
2023/10/30 06:38:33;;;;;;;17.07;3.00;;;10.80;99.90;;;;;;5057453;28;37689;-77
2023/10/30 06:41:00;;;;;;;14.50;2.27;;;10.90;99.90;;;;;;5059817;28;37003;-77
2023/10/30 06:43:26;;;;;;;16.27;2.43;;;10.80;99.90;;;;;;5062098;28;38561;-78
2023/10/30 06:46:02;;;;;;;17.97;3.20;;;10.90;99.90;;;;;;5063005;28;38712;-78
2023/10/30 06:48:29;;;;;;;19.03;3.37;;;10.90;99.90;;;;;;5066852;28;37959;-77
2023/10/30 06:50:55;;;;;;;19.50;2.33;;;11.00;99.90;;;;;;5053003;28;36256;-76
2023/10/30 06:53:25;;;;;;;19.27;2.83;;;11.10;99.90;;;;;;5044080;28;38111;-77
2023/10/30 06:55:51;;;;;;;11.97;2.57;;;11.10;99.90;;;;;;5053158;28;37735;-76
2023/10/30 06:58:18;;;;;;;20.03;3.00;;;11.10;99.90;;;;;;5047858;28;37873;-78
2023/10/30 07:00:45;;;;;;;26.17;3.80;;;11.20;99.90;;;;;;5050092;28;39730;-78
2023/10/30 07:03:11;;;;;;;17.17;2.83;;;11.20;99.90;;;;;;5046061;28;39091;-78
2023/10/30 07:05:37;;;;;;;11.73;3.15;;;11.30;99.90;;;;;;5062798;28;38759;-77
2023/10/30 07:08:04;;;;;;;19.03;2.37;;;11.30;99.90;;;;;;5049862;28;38162;-77
2023/10/30 07:10:30;;;;;;;19.13;2.90;;;11.30;99.90;;;;;;5051049;28;36714;-78
2023/10/30 07:12:56;;;;;;;10.63;2.70;;;11.30;99.90;;;;;;5053547;28;37264;-77
2023/10/30 07:15:23;;;;;;;16.07;3.00;;;11.40;99.90;;;;;;5051599;28;38175;-76
2023/10/30 07:17:49;;;;;;;17.57;2.70;;;11.50;99.90;;;;;;5049117;28;38492;-77
2023/10/30 07:20:15;;;;;;;18.70;3.22;;;11.50;99.90;;;;;;5055195;28;37082;-76
2023/10/30 07:22:42;;;;;;;19.97;2.63;;;11.60;99.90;;;;;;5061227;28;37553;-77
2023/10/30 07:25:08;;;;;;;17.47;3.07;;;11.70;99.90;;;;;;5047924;28;37672;-76
2023/10/30 07:27:34;;;;;;;17.75;2.80;;;11.70;99.90;;;;;;5052168;28;37928;-77
2023/10/30 07:30:02;;;;;;;19.88;2.42;;;11.80;99.90;;;;;;5055500;28;36667;-76
2023/10/30 07:32:28;;;;;;;15.50;2.40;;;11.80;99.90;;;;;;5052524;28;37777;-77
2023/10/30 07:34:54;;;;;;;15.03;2.80;;;11.90;99.90;;;;;;5049541;28;38032;-77
2023/10/30 07:37:20;;;;;;;13.65;3.03;;;11.90;99.90;;;;;;5054955;28;37697;-79
2023/10/30 07:39:47;;;;;;;21.70;3.08;;;11.90;99.90;;;;;;5057773;28;35631;-76
2023/10/30 07:42:13;;;;;;;22.10;3.10;;;11.90;99.90;;;;;;5053728;28;38432;-77
2023/10/30 07:44:39;;;;;;;18.33;2.78;;;11.90;99.90;;;;;;5046030;28;38322;-76
2023/10/30 07:47:05;;;;;;;13.00;3.58;;;12.00;99.90;;;;;;5047636;28;38154;-76
2023/10/30 07:49:32;;;;;;;17.90;2.92;;;12.00;99.90;;;;;;5047274;28;35607;-77
2023/10/30 07:51:58;;;;;;;15.90;2.92;;;12.00;99.90;;;;;;5049663;28;37524;-76
2023/10/30 07:54:24;;;;;;;19.27;2.78;;;12.10;99.90;;;;;;5045453;28;38089;-77
2023/10/30 07:56:50;;;;;;;11.88;2.60;;;12.20;99.90;;;;;;5052663;28;38801;-79
2023/10/30 07:59:16;;;;;;;16.98;4.18;;;12.20;99.90;;;;;;5054326;28;36210;-78
2023/10/30 08:01:45;;;;;;;14.60;2.40;;;12.20;99.90;;;;;;5051432;28;38412;-76
2023/10/30 08:04:11;;;;;;;21.38;2.65;;;12.30;99.90;;;;;;5049306;28;39694;-78
2023/10/30 08:06:37;;;;;;;14.18;2.13;;;12.30;99.90;;;;;;5048128;28;36922;-78
2023/10/30 08:09:05;;;;;;;17.02;2.92;;;12.30;99.90;;;;;;5052973;28;20093;-78
2023/10/30 08:11:32;;;;;;;20.27;3.05;;;12.30;99.90;;;;;;5051920;28;38042;-79
2023/10/30 08:13:58;;;;;;;18.73;3.78;;;12.30;99.90;;;;;;5050475;28;38749;-78
2023/10/30 08:16:25;;;;;;;18.48;2.83;;;12.40;99.90;;;;;;5049321;28;38035;-78
2023/10/30 08:18:51;;;;;;;15.05;2.72;;;12.40;99.90;;;;;;5050507;28;38198;-76
2023/10/30 08:21:17;;;;;;;19.70;3.42;;;12.40;99.90;;;;;;5063086;28;37787;-77
2023/10/30 08:23:43;;;;;;;21.10;2.92;;;12.50;99.90;;;;;;5046270;28;38381;-76
2023/10/30 08:26:09;;;;;;;15.02;2.58;;;12.50;99.90;;;;;;5047798;28;37564;-77
2023/10/30 08:28:35;;;;;;;18.35;2.67;;;12.50;99.90;;;;;;5049104;28;37903;-78
2023/10/30 08:31:02;;;;;;;13.30;2.95;;;12.50;99.90;;;;;;5045916;28;37653;-79
2023/10/30 08:33:28;;;;;;;13.05;2.50;;;12.60;99.90;;;;;;5049878;28;38742;-78
2023/10/30 08:35:54;;;;;;;18.33;2.53;;;12.60;99.90;;;;;;5063195;28;40227;-79
2023/10/30 08:38:20;;;;;;;13.80;2.40;;;12.60;99.90;;;;;;5049828;28;36295;-77
2023/10/30 08:40:46;;;;;;;15.68;2.70;;;12.60;99.90;;;;;;5049448;28;38663;-79
2023/10/30 08:43:13;;;;;;;8.20;2.10;;;12.60;99.90;;;;;;5051082;28;37781;-80
2023/10/30 08:45:39;;;;;;;15.07;3.08;;;12.70;99.90;;;;;;5053176;28;39068;-80
2023/10/30 08:48:05;;;;;;;11.98;2.28;;;12.70;99.90;;;;;;5052017;28;37602;-79
2023/10/30 08:50:31;;;;;;;14.85;2.58;;;12.70;99.90;;;;;;5056491;28;39515;-79
2023/10/30 08:52:57;;;;;;;13.30;2.50;;;12.70;99.90;;;;;;5054640;28;41817;-80
2023/10/30 08:55:23;;;;;;;17.80;3.22;;;12.70;99.90;;;;;;5065784;28;37774;-79
2023/10/30 08:57:49;;;;;;;17.10;3.08;;;12.70;99.90;;;;;;5056380;28;38458;-80
2023/10/30 09:00:16;;;;;;;15.32;2.45;;;12.80;99.90;;;;;;5052910;28;39861;-79
2023/10/30 09:02:43;;;;;;;12.32;2.83;;;12.80;99.90;;;;;;5056196;28;39797;-78
2023/10/30 09:05:10;;;;;;;14.75;2.60;;;12.70;99.90;;;;;;5059148;28;37481;-78
2023/10/30 09:07:36;;;;;;;11.27;3.28;;;12.80;99.90;;;;;;5057725;28;37725;-79
2023/10/30 09:10:03;;;;;;;12.05;2.67;;;12.80;99.90;;;;;;5052745;28;37943;-77
2023/10/30 09:12:29;;;;;;;19.77;3.50;;;12.80;99.90;;;;;;5043914;28;37662;-81
2023/10/30 09:14:55;;;;;;;17.50;2.70;;;12.90;99.90;;;;;;5054815;28;39704;-77
2023/10/30 09:17:21;;;;;;;12.55;2.65;;;12.90;99.90;;;;;;5052826;28;36399;-78
2023/10/30 09:19:47;;;;;;;14.80;3.05;;;12.90;99.90;;;;;;5054099;28;38737;-78
2023/10/30 09:22:13;;;;;;;17.30;2.63;;;13.00;99.90;;;;;;5054264;28;38376;-78
2023/10/30 09:24:39;;;;;;;20.40;2.53;;;13.00;99.90;;;;;;5052456;28;38754;-78
2023/10/30 09:27:05;;;;;;;16.40;2.90;;;13.10;99.90;;;;;;5050187;28;37020;-77
2023/10/30 09:29:31;;;;;;;13.32;2.75;;;13.10;99.90;;;;;;5050665;28;38011;-78
2023/10/30 09:31:59;;;;;;;16.67;2.83;;;13.10;99.90;;;;;;5054583;28;37757;-80
2023/10/30 09:34:25;;;;;;;14.45;3.03;;;13.20;99.90;;;;;;5050140;28;38257;-78
2023/10/30 09:36:51;;;;;;;14.75;3.38;;;13.20;99.90;;;;;;5056341;28;37013;-79
2023/10/30 09:39:17;;;;;;;18.70;2.63;;;13.10;99.90;;;;;;5049415;28;39254;-77
2023/10/30 09:41:45;;;;;;;13.40;2.85;;;13.10;99.90;;;;;;5066247;28;35594;-77
2023/10/30 09:44:12;;;;;;;11.35;2.22;;;13.10;99.90;;;;;;5049921;28;37694;-76
2023/10/30 09:46:39;;;;;;;13.43;3.13;;;13.10;99.90;;;;;;5055438;28;38400;-77
2023/10/30 09:49:13;;;;;;;10.88;2.35;;;13.10;99.90;;;;;;5071237;28;37767;-80
2023/10/30 09:51:42;;;;;;;24.00;3.78;;;13.10;99.90;;;;;;5051853;28;38983;-77
2023/10/30 09:54:09;;;;;;;13.27;2.97;;;13.10;99.90;;;;;;5050233;28;37595;-79
2023/10/30 09:56:38;;;;;;;10.32;3.10;;;13.20;99.90;;;;;;5046198;28;35846;-79
2023/10/30 09:59:05;;;;;;;17.75;3.22;;;13.20;99.90;;;;;;5050182;28;37559;-78
2023/10/30 10:01:31;;;;;;;14.27;2.85;;;13.30;99.90;;;;;;5056223;28;38580;-78
2023/10/30 10:03:57;;;;;;;16.02;3.47;;;13.40;99.90;;;;;;5051513;28;38624;-75
2023/10/30 10:06:24;;;;;;;12.90;2.67;;;13.50;99.90;;;;;;5049741;28;35978;-75
2023/10/30 10:08:50;;;;;;;16.77;2.85;;;13.60;99.90;;;;;;5057090;28;38381;-76
2023/10/30 10:11:22;;;;;;;18.55;3.28;;;13.60;99.90;;;;;;5054311;28;39457;-78
2023/10/30 10:13:49;;;;;;;9.48;2.67;;;13.60;99.90;;;;;;5054467;28;37983;-75
2023/10/30 10:16:17;;;;;;;14.07;3.03;;;13.60;99.90;;;;;;5052494;28;38251;-78
2023/10/30 10:18:43;;;;;;;10.90;2.55;;;13.70;99.90;;;;;;5052504;28;37910;-74
2023/10/30 10:21:11;;;;;;;19.35;2.88;;;13.70;99.90;;;;;;5051879;28;37677;-76
2023/10/30 10:23:38;;;;;;;10.00;2.38;;;13.70;99.90;;;;;;5047654;28;37797;-77
2023/10/30 10:26:14;;;;;;;18.65;3.13;;;13.70;99.90;;;;;;5051940;28;36209;-76
2023/10/30 10:28:42;;;;;;;11.85;2.20;;;13.80;99.90;;;;;;5051245;28;38917;-75
2023/10/30 10:31:09;;;;;;;15.43;2.80;;;13.80;99.90;;;;;;5049122;28;38386;-75
2023/10/30 10:33:36;;;;;;;16.15;2.50;;;13.80;99.90;;;;;;5049903;28;37565;-76
2023/10/30 10:36:03;;;;;;;16.58;3.20;;;13.80;99.90;;;;;;5050434;28;36158;-74
2023/10/30 10:38:31;;;;;;;10.65;2.38;;;13.80;99.90;;;;;;5051487;28;37411;-75
2023/10/30 10:40:58;;;;;;;12.88;2.42;;;13.70;99.90;;;;;;5053644;28;38779;-75
2023/10/30 10:43:28;;;;;;;12.13;2.10;;;13.70;99.90;;;;;;5050541;28;39323;-75
2023/10/30 10:45:55;;;;;;;14.73;2.90;;;13.70;99.90;;;;;;5052943;28;37104;-75
2023/10/30 10:48:25;;;;;;;14.73;2.75;;;13.80;99.90;;;;;;5048215;28;37757;-75
2023/10/30 10:50:54;;;;;;;16.17;2.83;;;13.80;99.90;;;;;;5051599;28;38277;-76
2023/10/30 10:53:23;;;;;;;13.40;2.08;;;13.70;99.90;;;;;;5050503;28;37450;-75
2023/10/30 10:55:50;;;;;;;11.75;2.50;;;13.70;99.90;;;;;;5049303;28;36340;-76
2023/10/30 10:58:34;;;;;;;14.30;2.13;;;13.70;99.90;;;;;;5050511;28;37462;-75
2023/10/30 11:01:03;;;;;;;15.25;2.35;;;13.70;99.90;;;;;;5049593;28;38961;-76
2023/10/30 11:03:30;;;;;;;13.75;2.55;;;13.70;99.90;;;;;;5050135;28;49227;-75
2023/10/30 11:05:58;;;;;;;12.55;2.38;;;13.70;99.90;;;;;;5051197;28;36199;-76
2023/10/30 11:08:48;;;;;;;21.17;3.60;;;13.70;99.90;;;;;;5053290;28;38932;-76
2023/10/30 11:11:37;;;;;;;14.65;2.42;;;13.80;99.90;;;;;;5054107;28;38167;-75
2023/10/30 11:14:35;;;;;;;12.40;2.80;;;13.80;99.90;;;;;;5052184;28;37440;-74
2023/10/30 11:17:03;;;;;;;10.25;2.58;;;13.90;99.90;;;;;;5051799;28;36830;-76
2023/10/30 11:19:29;;;;;;;11.68;2.85;;;13.80;99.90;;;;;;5047989;28;47335;-76
2023/10/30 11:21:55;;;;;;;21.05;3.08;;;13.90;99.90;;;;;;5050280;28;37995;-74
2023/10/30 11:24:38;;;;;;;17.33;2.60;;;13.90;99.90;;;;;;5059679;28;37060;-75
2023/10/30 11:27:26;;;;;;;13.13;3.00;;;13.90;99.90;;;;;;5050045;28;37315;-75
2023/10/30 11:29:57;;;;;;;8.70;1.80;;;14.00;99.90;;;;;;5050173;28;38853;-75
2023/10/30 11:32:32;;;;;;;16.67;3.25;;;14.00;99.90;;;;;;5048641;28;37787;-75
2023/10/30 11:34:59;;;;;;;15.90;3.63;;;14.00;99.90;;;;;;5048911;28;37476;-75
2023/10/30 11:37:27;;;;;;;14.93;2.53;;;14.10;99.90;;;;;;5050242;28;37105;-75
2023/10/30 11:39:54;;;;;;;21.00;3.42;;;14.10;99.90;;;;;;5049696;28;37570;-75
2023/10/30 11:42:26;;;;;;;13.23;2.90;;;14.00;99.90;;;;;;5048805;28;37668;-74
2023/10/30 11:44:53;;;;;;;11.75;2.95;;;14.10;99.90;;;;;;5053815;28;38827;-75
2023/10/30 11:47:26;;;;;;;13.18;2.45;;;14.10;99.90;;;;;;5048608;28;35885;-76
2023/10/30 11:49:58;;;;;;;18.85;2.88;;;14.20;99.90;;;;;;5052446;28;37778;-75
2023/10/30 11:52:24;;;;;;;11.15;2.22;;;14.20;99.90;;;;;;5053496;28;38817;-75
2023/10/30 11:54:50;;;;;;;12.88;2.33;;;14.20;99.90;;;;;;5047885;28;38936;-76
2023/10/30 11:57:16;;;;;;;10.27;2.10;;;14.20;99.90;;;;;;5046361;28;36684;-75
2023/10/30 11:59:43;;;;;;;16.02;2.60;;;14.30;99.90;;;;;;5051281;28;39257;-76
2023/10/30 12:02:09;;;;;;;14.25;2.78;;;14.40;99.90;;;;;;5056228;28;37807;-75
2023/10/30 12:04:35;;;;;;;10.25;2.15;;;14.40;99.90;;;;;;5048889;28;37573;-75
2023/10/30 12:07:02;;;;;;;12.23;2.22;;;14.40;99.90;;;;;;5042647;28;36967;-75
2023/10/30 12:09:29;;;;;;;10.73;2.22;;;14.40;99.90;;;;;;5047426;28;46979;-76
2023/10/30 12:11:55;;;;;;;12.90;2.40;;;14.40;99.90;;;;;;5052871;28;38704;-76
2023/10/30 12:14:21;;;;;;;15.10;3.00;;;14.40;99.90;;;;;;5060016;28;38967;-76
2023/10/30 12:16:52;;;;;;;11.52;2.50;;;14.30;99.90;;;;;;5048128;28;37289;-77
2023/10/30 12:19:20;;;;;;;15.65;2.63;;;14.40;99.90;;;;;;5046200;28;38893;-77
2023/10/30 12:21:48;;;;;;;14.40;3.17;;;14.40;99.90;;;;;;5059768;28;38791;-76
2023/10/30 12:24:16;;;;;;;8.75;2.28;;;14.40;99.90;;;;;;5048889;28;39246;-77
2023/10/30 12:26:43;;;;;;;11.88;2.70;;;14.40;99.90;;;;;;5055599;28;37752;-77
2023/10/30 12:29:09;;;;;;;16.77;2.63;;;14.40;99.90;;;;;;5057806;28;38744;-77
2023/10/30 12:31:35;;;;;;;7.78;2.10;;;14.50;99.90;;;;;;5051712;28;37637;-78
2023/10/30 12:34:11;;;;;;;10.02;2.58;;;14.60;99.90;;;;;;5054076;28;39718;-76
2023/10/30 12:36:38;;;;;;;16.63;2.97;;;14.60;99.90;;;;;;5055906;28;35227;-79
2023/10/30 12:39:13;;;;;;;17.23;3.90;;;14.60;99.90;;;;;;5058750;28;41407;-76